sensor_id;sensor_type;location;lat;lon;timestamp;pressure;altitude;pressure_sealevel;temperature;humidity
64080;BME280;51042;49.696;10.808;2022-08-19T00:02:24;97842.16;;;19.94;100.00
64080;BME280;51042;49.696;10.808;2022-08-19T00:04:50;97857.09;;;19.97;99.57
64080;BME280;51042;49.696;10.808;2022-08-19T00:07:17;97860.13;;;19.99;100.00
64080;BME280;51042;49.696;10.808;2022-08-19T00:09:44;97857.84;;;19.97;100.00
64080;BME280;51042;49.696;10.808;2022-08-19T00:12:09;97848.22;;;19.98;100.00
64080;BME280;51042;49.696;10.808;2022-08-19T00:14:35;97841.38;;;20.00;100.00
64080;BME280;51042;49.696;10.808;2022-08-19T00:17:01;97834.31;;;19.93;99.95
64080;BME280;51042;49.696;10.808;2022-08-19T00:19:28;97833.59;;;19.87;100.00
64080;BME280;51042;49.696;10.808;2022-08-19T00:21:53;97828.53;;;19.85;100.00
64080;BME280;51042;49.696;10.808;2022-08-19T00:24:21;97827.00;;;19.90;100.00
64080;BME280;51042;49.696;10.808;2022-08-19T00:26:48;97836.38;;;19.87;99.99
64080;BME280;51042;49.696;10.808;2022-08-19T00:29:14;97834.84;;;19.86;100.00
64080;BME280;51042;49.696;10.808;2022-08-19T00:31:42;97827.00;;;19.84;100.00
64080;BME280;51042;49.696;10.808;2022-08-19T00:34:09;97821.69;;;19.86;100.00
64080;BME280;51042;49.696;10.808;2022-08-19T00:36:36;97822.44;;;19.87;100.00
64080;BME280;51042;49.696;10.808;2022-08-19T00:39:03;97820.94;;;19.86;100.00
64080;BME280;51042;49.696;10.808;2022-08-19T00:41:28;97818.66;;;19.84;100.00
64080;BME280;51042;49.696;10.808;2022-08-19T00:43:58;97818.91;;;19.86;100.00
64080;BME280;51042;49.696;10.808;2022-08-19T00:46:29;97812.06;;;19.87;100.00
64080;BME280;51042;49.696;10.808;2022-08-19T00:48:56;97814.59;;;19.85;100.00
64080;BME280;51042;49.696;10.808;2022-08-19T00:51:26;97831.09;;;19.78;100.00
64080;BME280;51042;49.696;10.808;2022-08-19T00:53:55;97833.38;;;19.74;100.00
64080;BME280;51042;49.696;10.808;2022-08-19T00:56:23;97831.34;;;19.74;100.00
64080;BME280;51042;49.696;10.808;2022-08-19T00:58:51;97840.47;;;19.69;100.00
64080;BME280;51042;49.696;10.808;2022-08-19T01:01:19;97838.22;;;19.62;100.00
64080;BME280;51042;49.696;10.808;2022-08-19T01:03:44;97844.56;;;19.57;100.00
64080;BME280;51042;49.696;10.808;2022-08-19T01:06:09;97852.66;;;19.55;100.00
64080;BME280;51042;49.696;10.808;2022-08-19T01:08:35;97850.13;;;19.57;100.00
64080;BME280;51042;49.696;10.808;2022-08-19T01:11:00;97857.69;;;19.62;100.00
64080;BME280;51042;49.696;10.808;2022-08-19T01:13:27;97845.81;;;19.62;100.00
64080;BME280;51042;49.696;10.808;2022-08-19T01:15:57;97847.31;;;19.63;100.00
64080;BME280;51042;49.696;10.808;2022-08-19T01:18:25;97849.31;;;19.68;100.00
64080;BME280;51042;49.696;10.808;2022-08-19T01:20:54;97845.00;;;19.72;100.00
64080;BME280;51042;49.696;10.808;2022-08-19T01:23:23;97851.09;;;19.76;100.00
64080;BME280;51042;49.696;10.808;2022-08-19T01:26:07;97858.41;;;19.79;100.00
64080;BME280;51042;49.696;10.808;2022-08-19T01:28:35;97855.13;;;19.81;100.00
64080;BME280;51042;49.696;10.808;2022-08-19T01:31:00;97869.53;;;19.85;100.00
64080;BME280;51042;49.696;10.808;2022-08-19T01:33:26;97875.88;;;19.80;100.00
64080;BME280;51042;49.696;10.808;2022-08-19T01:35:51;97877.91;;;19.79;100.00
64080;BME280;51042;49.696;10.808;2022-08-19T01:38:21;97875.13;;;19.79;100.00
64080;BME280;51042;49.696;10.808;2022-08-19T01:40:51;97874.16;;;19.66;100.00
64080;BME280;51042;49.696;10.808;2022-08-19T01:43:17;97876.69;;;19.64;100.00
64080;BME280;51042;49.696;10.808;2022-08-19T01:45:44;97876.19;;;19.65;100.00
64080;BME280;51042;49.696;10.808;2022-08-19T01:48:09;97883.25;;;19.66;100.00
64080;BME280;51042;49.696;10.808;2022-08-19T01:50:35;97890.34;;;19.67;100.00
64080;BME280;51042;49.696;10.808;2022-08-19T01:53:02;97888.56;;;19.70;100.00
64080;BME280;51042;49.696;10.808;2022-08-19T01:55:31;97887.03;;;19.74;100.00
64080;BME280;51042;49.696;10.808;2022-08-19T01:57:58;97888.06;;;19.77;100.00
64080;BME280;51042;49.696;10.808;2022-08-19T02:00:26;97888.28;;;19.79;100.00
64080;BME280;51042;49.696;10.808;2022-08-19T02:02:54;97885.25;;;19.77;100.00
64080;BME280;51042;49.696;10.808;2022-08-19T02:05:19;97881.94;;;19.78;100.00
64080;BME280;51042;49.696;10.808;2022-08-19T02:07:46;97896.38;;;19.82;100.00
64080;BME280;51042;49.696;10.808;2022-08-19T02:10:13;97889.56;;;19.83;100.00
64080;BME280;51042;49.696;10.808;2022-08-19T02:12:40;97890.56;;;19.80;99.69
64080;BME280;51042;49.696;10.808;2022-08-19T02:15:06;97884.97;;;19.86;99.31
64080;BME280;51042;49.696;10.808;2022-08-19T02:17:32;97880.44;;;19.88;98.87
64080;BME280;51042;49.696;10.808;2022-08-19T02:19:58;97872.84;;;19.89;98.43
64080;BME280;51042;49.696;10.808;2022-08-19T02:22:24;97878.94;;;19.76;99.06
64080;BME280;51042;49.696;10.808;2022-08-19T02:24:53;97880.97;;;19.70;98.83
64080;BME280;51042;49.696;10.808;2022-08-19T02:27:19;97894.63;;;19.74;99.15
64080;BME280;51042;49.696;10.808;2022-08-19T02:29:46;97898.16;;;19.74;98.96
64080;BME280;51042;49.696;10.808;2022-08-19T02:32:12;97907.78;;;19.73;99.57
64080;BME280;51042;49.696;10.808;2022-08-19T02:34:38;97908.03;;;19.75;98.99
64080;BME280;51042;49.696;10.808;2022-08-19T02:37:03;97916.13;;;19.79;98.66
64080;BME280;51042;49.696;10.808;2022-08-19T02:39:29;97909.28;;;19.80;99.26
64080;BME280;51042;49.696;10.808;2022-08-19T02:41:54;97910.81;;;19.81;99.09
64080;BME280;51042;49.696;10.808;2022-08-19T02:44:19;97910.03;;;19.86;98.60
64080;BME280;51042;49.696;10.808;2022-08-19T02:46:45;97907.03;;;19.84;98.13
64080;BME280;51042;49.696;10.808;2022-08-19T02:49:12;97906.00;;;19.87;98.98
64080;BME280;51042;49.696;10.808;2022-08-19T02:51:39;97916.88;;;19.79;98.31
64080;BME280;51042;49.696;10.808;2022-08-19T02:54:06;97923.75;;;19.84;97.98
64080;BME280;51042;49.696;10.808;2022-08-19T02:56:36;97931.06;;;19.81;98.34
64080;BME280;51042;49.696;10.808;2022-08-19T02:59:04;97939.91;;;19.85;97.96
64080;BME280;51042;49.696;10.808;2022-08-19T03:01:34;97927.25;;;19.84;98.32
64080;BME280;51042;49.696;10.808;2022-08-19T03:04:02;97930.56;;;19.83;98.58
64080;BME280;51042;49.696;10.808;2022-08-19T03:06:30;97920.94;;;19.84;98.64
64080;BME280;51042;49.696;10.808;2022-08-19T03:08:55;97923.47;;;19.82;98.49
64080;BME280;51042;49.696;10.808;2022-08-19T03:11:23;97924.75;;;19.81;98.81
64080;BME280;51042;49.696;10.808;2022-08-19T03:13:51;97937.41;;;19.76;98.61
64080;BME280;51042;49.696;10.808;2022-08-19T03:16:18;97941.19;;;19.79;98.36
64080;BME280;51042;49.696;10.808;2022-08-19T03:18:44;97941.19;;;19.84;98.52
64080;BME280;51042;49.696;10.808;2022-08-19T03:21:14;97921.69;;;19.84;97.70
64080;BME280;51042;49.696;10.808;2022-08-19T03:23:41;97914.34;;;19.87;97.54
64080;BME280;51042;49.696;10.808;2022-08-19T03:26:06;97918.38;;;19.91;97.61
64080;BME280;51042;49.696;10.808;2022-08-19T03:28:32;97914.59;;;19.89;97.89
64080;BME280;51042;49.696;10.808;2022-08-19T03:31:03;97919.66;;;19.90;98.62
64080;BME280;51042;49.696;10.808;2022-08-19T03:33:31;97919.66;;;19.90;98.23
64080;BME280;51042;49.696;10.808;2022-08-19T03:38:34;97920.19;;;19.89;98.56
64080;BME280;51042;49.696;10.808;2022-08-19T03:41:02;97910.31;;;19.88;97.53
64080;BME280;51042;49.696;10.808;2022-08-19T03:43:31;97901.44;;;19.89;98.26
64080;BME280;51042;49.696;10.808;2022-08-19T03:46:01;97898.88;;;19.91;97.62
64080;BME280;51042;49.696;10.808;2022-08-19T03:48:31;97900.66;;;19.94;96.95
64080;BME280;51042;49.696;10.808;2022-08-19T03:50:57;97899.41;;;19.95;96.37
64080;BME280;51042;49.696;10.808;2022-08-19T03:53:24;97892.56;;;19.85;97.38
64080;BME280;51042;49.696;10.808;2022-08-19T03:55:51;97894.63;;;19.74;99.14
64080;BME280;51042;49.696;10.808;2022-08-19T03:58:17;97900.94;;;19.74;99.52
64080;BME280;51042;49.696;10.808;2022-08-19T04:00:43;97906.78;;;19.76;99.10
64080;BME280;51042;49.696;10.808;2022-08-19T04:03:08;97901.72;;;19.75;100.00
64080;BME280;51042;49.696;10.808;2022-08-19T04:05:34;97902.47;;;19.70;99.63
64080;BME280;51042;49.696;10.808;2022-08-19T04:07:59;97894.63;;;19.74;99.95
64080;BME280;51042;49.696;10.808;2022-08-19T04:10:25;97890.56;;;19.75;99.40
64080;BME280;51042;49.696;10.808;2022-08-19T04:12:52;97887.78;;;19.75;99.68
64080;BME280;51042;49.696;10.808;2022-08-19T04:15:17;97890.34;;;19.67;100.00
64080;BME280;51042;49.696;10.808;2022-08-19T04:17:44;97890.84;;;19.66;100.00
64080;BME280;51042;49.696;10.808;2022-08-19T04:20:10;97886.06;;;19.66;100.00
64080;BME280;51042;49.696;10.808;2022-08-19T04:22:35;97885.28;;;19.66;100.00
64080;BME280;51042;49.696;10.808;2022-08-19T04:25:00;97883.78;;;19.65;99.74
64080;BME280;51042;49.696;10.808;2022-08-19T04:27:26;97890.59;;;19.64;100.00
64080;BME280;51042;49.696;10.808;2022-08-19T04:29:51;97891.88;;;19.63;100.00
64080;BME280;51042;49.696;10.808;2022-08-19T04:32:17;97895.69;;;19.60;100.00
64080;BME280;51042;49.696;10.808;2022-08-19T04:34:42;97897.44;;;19.57;100.00
64080;BME280;51042;49.696;10.808;2022-08-19T04:37:07;97901.47;;;19.56;100.00
64080;BME280;51042;49.696;10.808;2022-08-19T04:39:36;97909.34;;;19.58;100.00
64080;BME280;51042;49.696;10.808;2022-08-19T04:42:20;97905.78;;;19.63;100.00
64080;BME280;51042;49.696;10.808;2022-08-19T04:45:13;97902.75;;;19.66;100.00
64080;BME280;51042;49.696;10.808;2022-08-19T04:47:40;97917.94;;;19.65;100.00
64080;BME280;51042;49.696;10.808;2022-08-19T04:50:08;97923.75;;;19.67;100.00
64080;BME280;51042;49.696;10.808;2022-08-19T04:52:36;97922.75;;;19.65;100.00
64080;BME280;51042;49.696;10.808;2022-08-19T04:55:02;97917.44;;;19.55;100.00
64080;BME280;51042;49.696;10.808;2022-08-19T04:57:30;97914.91;;;19.46;100.00
64080;BME280;51042;49.696;10.808;2022-08-19T04:59:56;97925.28;;;19.51;100.00
64080;BME280;51042;49.696;10.808;2022-08-19T05:02:22;97937.66;;;19.62;100.00
64080;BME280;51042;49.696;10.808;2022-08-19T05:04:57;97941.22;;;19.62;100.00
64080;BME280;51042;49.696;10.808;2022-08-19T05:07:24;97952.63;;;19.59;100.00
64080;BME280;51042;49.696;10.808;2022-08-19T05:09:49;97958.94;;;19.53;100.00
64080;BME280;51042;49.696;10.808;2022-08-19T05:12:15;97956.16;;;19.53;100.00
64080;BME280;51042;49.696;10.808;2022-08-19T05:14:40;97966.75;;;19.61;99.99
64080;BME280;51042;49.696;10.808;2022-08-19T05:17:06;97959.94;;;19.62;99.42
64080;BME280;51042;49.696;10.808;2022-08-19T05:19:31;97968.81;;;19.66;99.06
64080;BME280;51042;49.696;10.808;2022-08-19T05:22:15;97955.66;;;19.72;98.77
64080;BME280;51042;49.696;10.808;2022-08-19T05:25:03;97967.53;;;19.78;97.94
64080;BME280;51042;49.696;10.808;2022-08-19T05:27:33;97971.31;;;19.80;97.24
64080;BME280;51042;49.696;10.808;2022-08-19T05:29:59;97975.34;;;19.85;97.23
64080;BME280;51042;49.696;10.808;2022-08-19T05:32:24;97973.84;;;19.89;96.74
64080;BME280;51042;49.696;10.808;2022-08-19T05:34:50;97973.84;;;19.89;95.56
64080;BME280;51042;49.696;10.808;2022-08-19T05:37:16;97984.47;;;19.91;96.25
64080;BME280;51042;49.696;10.808;2022-08-19T05:39:42;97991.06;;;19.88;96.32
64080;BME280;51042;49.696;10.808;2022-08-19T05:42:09;97994.63;;;19.88;96.78
64080;BME280;51042;49.696;10.808;2022-08-19T05:44:37;98000.94;;;19.89;97.20
64080;BME280;51042;49.696;10.808;2022-08-19T05:47:05;98006.50;;;19.89;97.89
64080;BME280;51042;49.696;10.808;2022-08-19T05:49:33;98002.47;;;19.90;97.35
64080;BME280;51042;49.696;10.808;2022-08-19T05:52:01;98005.47;;;19.97;97.46
64080;BME280;51042;49.696;10.808;2022-08-19T05:54:29;98007.78;;;19.93;97.92
64080;BME280;51042;49.696;10.808;2022-08-19T05:56:55;98005.25;;;19.95;97.75
64080;BME280;51042;49.696;10.808;2022-08-19T05:59:20;98004.47;;;20.01;97.04
64080;BME280;51042;49.696;10.808;2022-08-19T06:01:47;98004.72;;;20.03;96.91
64080;BME280;51042;49.696;10.808;2022-08-19T06:04:16;98001.19;;;20.08;97.13
64080;BME280;51042;49.696;10.808;2022-08-19T06:06:43;98011.03;;;20.09;97.29
64080;BME280;51042;49.696;10.808;2022-08-19T06:09:09;98012.56;;;20.10;97.22
64080;BME280;51042;49.696;10.808;2022-08-19T06:11:39;98008.75;;;20.13;97.37
64080;BME280;51042;49.696;10.808;2022-08-19T06:14:09;98012.31;;;20.13;96.18
64080;BME280;51042;49.696;10.808;2022-08-19T06:16:37;98009.00;;;20.15;96.16
64080;BME280;51042;49.696;10.808;2022-08-19T06:19:05;98013.31;;;20.16;96.10
64080;BME280;51042;49.696;10.808;2022-08-19T06:21:37;98004.94;;;20.21;94.87
64080;BME280;51042;49.696;10.808;2022-08-19T06:24:05;98005.44;;;20.14;95.10
64080;BME280;51042;49.696;10.808;2022-08-19T06:26:33;98012.03;;;20.17;95.67
64080;BME280;51042;49.696;10.808;2022-08-19T06:29:00;98019.13;;;20.18;96.29
64080;BME280;51042;49.696;10.808;2022-08-19T06:31:27;98005.72;;;20.11;96.49
64080;BME280;51042;49.696;10.808;2022-08-19T06:33:53;98003.69;;;20.11;97.04
64080;BME280;51042;49.696;10.808;2022-08-19T06:36:26;98002.16;;;20.16;98.11
64080;BME280;51042;49.696;10.808;2022-08-19T06:38:54;98003.94;;;20.19;97.43
64080;BME280;51042;49.696;10.808;2022-08-19T06:41:19;97997.81;;;20.26;96.45
64080;BME280;51042;49.696;10.808;2022-08-19T06:43:45;97998.06;;;20.45;96.86
64080;BME280;51042;49.696;10.808;2022-08-19T06:46:12;98003.34;;;20.59;96.21
64080;BME280;51042;49.696;10.808;2022-08-19T06:48:38;98001.03;;;20.63;94.67
64080;BME280;51042;49.696;10.808;2022-08-19T06:51:03;98003.03;;;20.68;94.72
64080;BME280;51042;49.696;10.808;2022-08-19T06:53:30;98002.75;;;20.77;95.75
64080;BME280;51042;49.696;10.808;2022-08-19T06:55:56;98005.78;;;20.85;93.99
64080;BME280;51042;49.696;10.808;2022-08-19T06:58:25;98006.31;;;20.78;92.60
64080;BME280;51042;49.696;10.808;2022-08-19T07:00:51;98004.84;;;20.66;93.81
64080;BME280;51042;49.696;10.808;2022-08-19T07:03:16;98018.81;;;20.55;93.79
64080;BME280;51042;49.696;10.808;2022-08-19T07:05:42;98020.09;;;20.54;91.84
64080;BME280;51042;49.696;10.808;2022-08-19T07:08:08;98017.56;;;20.50;91.79
64080;BME280;51042;49.696;10.808;2022-08-19T07:10:34;98019.78;;;20.63;92.02
64080;BME280;51042;49.696;10.808;2022-08-19T07:13:01;98021.06;;;20.67;91.35
64080;BME280;51042;49.696;10.808;2022-08-19T07:15:27;98029.91;;;20.71;90.83
64080;BME280;51042;49.696;10.808;2022-08-19T07:17:52;98023.56;;;20.76;90.68
64080;BME280;51042;49.696;10.808;2022-08-19T07:20:17;98030.19;;;20.73;90.06
64080;BME280;51042;49.696;10.808;2022-08-19T07:22:43;98040.06;;;20.69;90.26
64080;BME280;51042;49.696;10.808;2022-08-19T07:25:09;98048.22;;;20.61;89.96
64080;BME280;51042;49.696;10.808;2022-08-19T07:27:34;98040.84;;;20.64;89.37
64080;BME280;51042;49.696;10.808;2022-08-19T07:30:00;98047.44;;;20.61;88.92
64080;BME280;51042;49.696;10.808;2022-08-19T07:32:25;98043.38;;;20.62;89.68
64080;BME280;51042;49.696;10.808;2022-08-19T07:34:51;98045.66;;;20.58;89.32
64080;BME280;51042;49.696;10.808;2022-08-19T07:37:17;98042.13;;;20.52;90.15
64080;BME280;51042;49.696;10.808;2022-08-19T07:39:42;98047.22;;;20.53;89.86
64080;BME280;51042;49.696;10.808;2022-08-19T07:42:09;98049.75;;;20.51;90.10
64080;BME280;51042;49.696;10.808;2022-08-19T07:44:36;98052.81;;;20.48;90.16
64080;BME280;51042;49.696;10.808;2022-08-19T07:47:02;98054.84;;;20.36;91.32
64080;BME280;51042;49.696;10.808;2022-08-19T07:49:28;98056.38;;;20.37;91.05
64080;BME280;51042;49.696;10.808;2022-08-19T07:51:55;98054.84;;;20.36;91.82
64080;BME280;51042;49.696;10.808;2022-08-19T07:54:23;98054.09;;;20.41;91.21
64080;BME280;51042;49.696;10.808;2022-08-19T07:56:50;98065.50;;;20.43;91.60
64080;BME280;51042;49.696;10.808;2022-08-19T07:59:16;98061.94;;;20.48;92.11
64080;BME280;51042;49.696;10.808;2022-08-19T08:01:42;98066.47;;;20.57;92.10
64080;BME280;51042;49.696;10.808;2022-08-19T08:04:08;98066.69;;;20.64;90.22
64080;BME280;51042;49.696;10.808;2022-08-19T08:06:53;98061.84;;;20.76;90.42
64080;BME280;51042;49.696;10.808;2022-08-19T08:09:38;98063.63;;;20.79;89.30
64080;BME280;51042;49.696;10.808;2022-08-19T08:12:10;98062.59;;;20.82;88.32
64080;BME280;51042;49.696;10.808;2022-08-19T08:14:40;98069.16;;;20.90;87.56
64080;BME280;51042;49.696;10.808;2022-08-19T08:17:17;98065.28;;;21.04;87.00
64080;BME280;51042;49.696;10.808;2022-08-19T08:19:44;98068.78;;;21.10;86.54
64080;BME280;51042;49.696;10.808;2022-08-19T08:22:11;98065.72;;;21.25;85.16
64080;BME280;51042;49.696;10.808;2022-08-19T08:25:00;98059.72;;;21.56;83.77
64080;BME280;51042;49.696;10.808;2022-08-19T08:27:29;98051.59;;;21.88;81.73
64080;BME280;51042;49.696;10.808;2022-08-19T08:29:55;98056.13;;;21.97;81.56
64080;BME280;51042;49.696;10.808;2022-08-19T08:32:21;98046.41;;;22.04;81.23
64080;BME280;51042;49.696;10.808;2022-08-19T08:34:46;98052.56;;;22.26;79.97
64080;BME280;51042;49.696;10.808;2022-08-19T08:37:11;98053.09;;;22.49;78.39
64080;BME280;51042;49.696;10.808;2022-08-19T08:39:37;98045.91;;;22.78;77.74
64080;BME280;51042;49.696;10.808;2022-08-19T08:44:44;98043.28;;;22.86;76.75
64080;BME280;51042;49.696;10.808;2022-08-19T08:47:19;98036.72;;;23.20;74.94
64080;BME280;51042;49.696;10.808;2022-08-19T08:49:48;98038.25;;;23.40;74.09
64080;BME280;51042;49.696;10.808;2022-08-19T08:52:22;98040.69;;;23.49;72.13
64080;BME280;51042;49.696;10.808;2022-08-19T08:54:52;98035.22;;;23.01;74.26
64080;BME280;51042;49.696;10.808;2022-08-19T08:57:22;98029.47;;;22.93;74.69
64080;BME280;51042;49.696;10.808;2022-08-19T08:59:54;98031.72;;;22.76;75.54
64080;BME280;51042;49.696;10.808;2022-08-19T09:02:25;98023.72;;;22.86;75.22
64080;BME280;51042;49.696;10.808;2022-08-19T09:04:51;98029.47;;;22.93;75.05
64080;BME280;51042;49.696;10.808;2022-08-19T09:07:24;98021.34;;;22.90;74.73
64080;BME280;51042;49.696;10.808;2022-08-19T09:10:04;98037.31;;;22.76;75.81
64080;BME280;51042;49.696;10.808;2022-08-19T09:15:01;98039.56;;;22.53;75.83
64080;BME280;51042;49.696;10.808;2022-08-19T09:17:31;98045.50;;;22.44;76.53
64080;BME280;51042;49.696;10.808;2022-08-19T09:22:36;98048.94;;;22.31;76.88
64080;BME280;51042;49.696;10.808;2022-08-19T09:25:03;98050.31;;;22.19;77.48
64080;BME280;51042;49.696;10.808;2022-08-19T09:27:30;98053.84;;;22.25;77.75
64080;BME280;51042;49.696;10.808;2022-08-19T09:29:56;98057.97;;;22.19;77.19
64080;BME280;51042;49.696;10.808;2022-08-19T09:32:22;98054.44;;;22.13;78.14
64080;BME280;51042;49.696;10.808;2022-08-19T09:34:48;98057.06;;;22.05;77.97
64080;BME280;51042;49.696;10.808;2022-08-19T09:37:14;98054.00;;;22.09;77.80
64080;BME280;51042;49.696;10.808;2022-08-19T09:39:39;98063.09;;;22.15;77.96
64080;BME280;51042;49.696;10.808;2022-08-19T09:42:06;98050.00;;;22.28;77.31
64080;BME280;51042;49.696;10.808;2022-08-19T09:44:37;98050.66;;;22.40;76.11
64080;BME280;51042;49.696;10.808;2022-08-19T09:47:03;98045.28;;;22.42;76.06
64080;BME280;51042;49.696;10.808;2022-08-19T09:49:29;98055.63;;;22.47;76.30
64080;BME280;51042;49.696;10.808;2022-08-19T09:51:54;98054.47;;;22.61;75.98
64080;BME280;51042;49.696;10.808;2022-08-19T09:54:21;98054.03;;;22.57;75.92
64080;BME280;51042;49.696;10.808;2022-08-19T09:56:47;98058.28;;;22.64;76.44
64080;BME280;51042;49.696;10.808;2022-08-19T09:59:12;98059.00;;;22.64;76.02
64080;BME280;51042;49.696;10.808;2022-08-19T10:01:38;98052.91;;;22.66;76.29
64080;BME280;51042;49.696;10.808;2022-08-19T10:04:04;98054.31;;;22.54;77.27
64080;BME280;51042;49.696;10.808;2022-08-19T10:06:33;98054.31;;;22.54;75.78
64080;BME280;51042;49.696;10.808;2022-08-19T10:09:00;98055.16;;;22.73;76.03
64080;BME280;51042;49.696;10.808;2022-08-19T10:11:29;98051.19;;;23.06;74.20
64080;BME280;51042;49.696;10.808;2022-08-19T10:13:54;98045.97;;;23.34;73.57
64080;BME280;51042;49.696;10.808;2022-08-19T10:16:20;98043.22;;;23.66;72.65
64080;BME280;51042;49.696;10.808;2022-08-19T10:18:47;98039.94;;;23.81;71.43
64080;BME280;51042;49.696;10.808;2022-08-19T10:21:15;98037.34;;;23.51;73.40
64080;BME280;51042;49.696;10.808;2022-08-19T10:23:44;98048.47;;;23.56;73.04
64080;BME280;51042;49.696;10.808;2022-08-19T10:26:12;98044.81;;;23.62;73.38
64080;BME280;51042;49.696;10.808;2022-08-19T10:28:39;98047.69;;;23.75;73.05
64080;BME280;51042;49.696;10.808;2022-08-19T10:31:06;98037.56;;;24.17;71.60
64080;BME280;51042;49.696;10.808;2022-08-19T10:33:39;98041.13;;;24.17;70.66
64080;BME280;51042;49.696;10.808;2022-08-19T10:36:09;98043.47;;;24.13;70.04
64080;BME280;51042;49.696;10.808;2022-08-19T10:38:40;98054.16;;;24.15;69.75
64080;BME280;51042;49.696;10.808;2022-08-19T10:41:16;98058.25;;;24.14;70.10
64080;BME280;51042;49.696;10.808;2022-08-19T10:43:43;98058.91;;;24.07;70.19
64080;BME280;51042;49.696;10.808;2022-08-19T10:46:10;98065.44;;;23.96;70.50
64080;BME280;51042;49.696;10.808;2022-08-19T10:48:38;98055.69;;;23.84;71.83
64080;BME280;51042;49.696;10.808;2022-08-19T10:51:04;98062.91;;;23.60;71.52
64080;BME280;51042;49.696;10.808;2022-08-19T10:53:49;98060.00;;;23.53;72.89
64080;BME280;51042;49.696;10.808;2022-08-19T10:56:16;98062.16;;;23.60;72.51
64080;BME280;51042;49.696;10.808;2022-08-19T10:59:01;98053.63;;;23.71;72.29
64080;BME280;51042;49.696;10.808;2022-08-19T11:01:28;98057.00;;;23.83;72.31
64080;BME280;51042;49.696;10.808;2022-08-19T11:03:54;98052.94;;;23.97;71.40
64080;BME280;51042;49.696;10.808;2022-08-19T11:06:22;98051.22;;;23.94;71.68
64080;BME280;51042;49.696;10.808;2022-08-19T11:08:50;98049.16;;;23.94;71.09
64080;BME280;51042;49.696;10.808;2022-08-19T11:11:16;98043.22;;;23.66;71.36
64080;BME280;51042;49.696;10.808;2022-08-19T11:13:42;98046.78;;;23.67;72.10
64080;BME280;51042;49.696;10.808;2022-08-19T11:16:13;98054.44;;;23.66;71.13
64080;BME280;51042;49.696;10.808;2022-08-19T11:18:43;98045.91;;;23.58;72.53
64080;BME280;51042;49.696;10.808;2022-08-19T11:21:14;98043.09;;;23.58;72.49
64080;BME280;51042;49.696;10.808;2022-08-19T11:23:44;98048.91;;;23.60;72.01
64080;BME280;51042;49.696;10.808;2022-08-19T11:26:11;98053.41;;;23.50;71.46
64080;BME280;51042;49.696;10.808;2022-08-19T11:28:36;98050.06;;;23.33;73.28
64080;BME280;51042;49.696;10.808;2022-08-19T11:31:02;98055.91;;;23.35;73.14
64080;BME280;51042;49.696;10.808;2022-08-19T11:33:28;98047.94;;;23.20;73.74
64080;BME280;51042;49.696;10.808;2022-08-19T11:35:56;98046.03;;;23.10;73.88
64080;BME280;51042;49.696;10.808;2022-08-19T11:38:24;98054.88;;;22.95;74.57
64080;BME280;51042;49.696;10.808;2022-08-19T11:40:56;98050.25;;;22.79;74.56
64080;BME280;51042;49.696;10.808;2022-08-19T11:43:23;98053.50;;;22.83;75.02
64080;BME280;51042;49.696;10.808;2022-08-19T11:45:49;98051.69;;;22.86;75.20
64080;BME280;51042;49.696;10.808;2022-08-19T11:48:14;98045.56;;;22.87;74.86
64080;BME280;51042;49.696;10.808;2022-08-19T11:50:39;98042.78;;;22.87;75.31
64080;BME280;51042;49.696;10.808;2022-08-19T11:53:06;98046.25;;;22.69;76.49
64080;BME280;51042;49.696;10.808;2022-08-19T11:55:31;98045.78;;;22.65;76.38
64080;BME280;51042;49.696;10.808;2022-08-19T11:57:56;98053.41;;;22.64;76.56
64080;BME280;51042;49.696;10.808;2022-08-19T12:00:22;98042.47;;;22.66;76.12
64080;BME280;51042;49.696;10.808;2022-08-19T12:02:47;98034.31;;;22.68;76.89
64080;BME280;51042;49.696;10.808;2022-08-19T12:05:12;98045.97;;;22.48;77.84
64080;BME280;51042;49.696;10.808;2022-08-19T12:07:38;98035.72;;;22.32;78.74
64080;BME280;51042;49.696;10.808;2022-08-19T12:10:04;98031.06;;;22.16;79.50
64080;BME280;51042;49.696;10.808;2022-08-19T12:12:30;98040.38;;;22.24;79.70
64080;BME280;51042;49.696;10.808;2022-08-19T12:14:55;98040.50;;;22.37;78.44
64080;BME280;51042;49.696;10.808;2022-08-19T12:17:23;98040.44;;;22.43;78.21
64080;BME280;51042;49.696;10.808;2022-08-19T12:19:50;98031.47;;;22.50;77.93
64080;BME280;51042;49.696;10.808;2022-08-19T12:22:15;98029.38;;;22.56;77.70
64080;BME280;51042;49.696;10.808;2022-08-19T12:24:41;98037.59;;;22.72;76.71
64080;BME280;51042;49.696;10.808;2022-08-19T12:27:06;98039.16;;;22.68;77.23
64080;BME280;51042;49.696;10.808;2022-08-19T12:29:31;98041.19;;;22.67;76.40
64080;BME280;51042;49.696;10.808;2022-08-19T12:31:57;98032.50;;;22.71;76.35
64080;BME280;51042;49.696;10.808;2022-08-19T12:34:26;98032.25;;;22.74;75.78
64080;BME280;51042;49.696;10.808;2022-08-19T12:36:54;98036.06;;;22.71;76.00
64080;BME280;51042;49.696;10.808;2022-08-19T12:39:21;98034.28;;;22.74;75.76
64080;BME280;51042;49.696;10.808;2022-08-19T12:41:46;98039.66;;;22.66;75.48
64080;BME280;51042;49.696;10.808;2022-08-19T12:44:12;98035.84;;;22.69;75.77
64080;BME280;51042;49.696;10.808;2022-08-19T12:46:37;98039.28;;;22.81;75.18
64080;BME280;51042;49.696;10.808;2022-08-19T12:49:02;98035.88;;;22.88;74.95
64080;BME280;51042;49.696;10.808;2022-08-19T12:51:28;98031.94;;;22.78;75.04
64080;BME280;51042;49.696;10.808;2022-08-19T12:53:53;98027.34;;;22.81;74.98
64080;BME280;51042;49.696;10.808;2022-08-19T12:56:18;98030.41;;;22.77;75.33
64080;BME280;51042;49.696;10.808;2022-08-19T12:58:44;98031.94;;;22.78;75.31
64080;BME280;51042;49.696;10.808;2022-08-19T13:01:13;98028.72;;;22.68;75.43